Time;durP1;ratioP1;P1;durP2;ratioP2;P2;SDS_P1;SDS_P2;PMS_P1;PMS_P2;Temp;Humidity;BMP_temperature;BMP_pressure;BME280_temperature;BME280_humidity;BME280_pressure;Samples;Min_cycle;Max_cycle;Signal;HPM_P1;HPM_P2
2021/05/16 00:01:23;;;;;;;2.40;1.05;;;8.90;99.90;;;;;;5057019;28;20032;-82
2021/05/16 00:03:49;;;;;;;3.67;1.00;;;9.00;99.90;;;;;;5056758;28;20032;-82
2021/05/16 00:06:15;;;;;;;2.33;1.05;;;9.10;99.90;;;;;;5039654;28;20028;-82
2021/05/16 00:08:41;;;;;;;4.88;1.00;;;9.00;99.90;;;;;;5057763;28;20021;-81
2021/05/16 00:11:08;;;;;;;3.97;1.13;;;9.20;99.90;;;;;;5057417;28;20025;-82
2021/05/16 00:13:34;;;;;;;3.95;1.08;;;9.20;99.90;;;;;;5038601;28;20021;-81
2021/05/16 00:16:00;;;;;;;3.63;0.90;;;9.10;99.90;;;;;;5056532;28;20025;-82
2021/05/16 00:18:27;;;;;;;2.95;1.15;;;9.50;99.90;;;;;;5057229;28;20075;-81
2021/05/16 00:20:52;;;;;;;3.80;1.10;;;9.50;99.90;;;;;;5056905;28;20032;-81
2021/05/16 00:23:18;;;;;;;3.75;0.98;;;9.20;99.90;;;;;;5039896;28;20548;-82
2021/05/16 00:25:44;;;;;;;3.03;1.08;;;8.90;99.90;;;;;;5038823;28;20033;-82
2021/05/16 00:28:10;;;;;;;4.25;1.20;;;9.00;99.90;;;;;;5039578;28;20100;-82
2021/05/16 00:30:37;;;;;;;6.68;1.02;;;9.20;99.90;;;;;;5056574;28;20050;-83
2021/05/16 00:33:03;;;;;;;5.53;1.23;;;9.10;99.90;;;;;;5058534;28;20029;-82
2021/05/16 00:35:31;;;;;;;5.20;1.20;;;9.00;99.90;;;;;;5039833;28;20108;-82
2021/05/16 00:37:59;;;;;;;4.63;1.08;;;9.10;99.90;;;;;;5040739;28;20391;-82
2021/05/16 00:40:26;;;;;;;3.20;1.20;;;9.30;99.90;;;;;;5038727;28;20060;-82
2021/05/16 00:42:52;;;;;;;2.40;1.17;;;9.30;99.90;;;;;;5038890;28;20029;-83
2021/05/16 00:45:24;;;;;;;5.75;1.30;;;9.50;99.90;;;;;;5038221;28;20435;-82
2021/05/16 00:47:56;;;;;;;3.47;1.08;;;9.60;99.90;;;;;;5056748;28;20031;-83
2021/05/16 00:50:27;;;;;;;7.05;1.13;;;9.60;99.90;;;;;;5056635;28;20083;-82
2021/05/16 00:52:53;;;;;;;3.00;1.10;;;9.60;99.90;;;;;;5057492;28;20033;-82
2021/05/16 00:55:20;;;;;;;7.75;1.02;;;9.70;99.90;;;;;;5039120;28;20369;-82
2021/05/16 00:57:47;;;;;;;5.68;1.17;;;9.70;99.90;;;;;;5040342;28;20029;-82
2021/05/16 01:00:19;;;;;;;4.68;1.20;;;9.30;99.90;;;;;;5058166;28;20549;-82
2021/05/16 01:02:45;;;;;;;1.58;1.00;;;9.40;99.90;;;;;;5040717;28;20021;-82
2021/05/16 01:05:13;;;;;;;5.18;1.30;;;9.30;99.90;;;;;;5038968;28;20025;-82
2021/05/16 01:07:40;;;;;;;3.45;1.13;;;9.40;99.90;;;;;;5039358;28;20503;-82
2021/05/16 01:10:08;;;;;;;1.88;1.00;;;9.30;99.90;;;;;;5039759;28;20370;-82
2021/05/16 01:12:42;;;;;;;4.88;1.17;;;9.30;99.90;;;;;;5022962;28;20500;-83
2021/05/16 01:15:10;;;;;;;6.13;1.10;;;9.40;99.90;;;;;;5057228;28;20019;-82
2021/05/16 01:17:37;;;;;;;6.28;1.88;;;9.30;99.90;;;;;;5039897;28;20059;-82
2021/05/16 01:20:06;;;;;;;7.13;1.85;;;9.40;99.90;;;;;;5057397;28;20573;-82
2021/05/16 01:22:32;;;;;;;6.20;1.20;;;9.40;99.90;;;;;;5058099;28;20086;-82
2021/05/16 01:24:57;;;;;;;5.35;1.55;;;9.30;99.90;;;;;;5037741;28;20025;-81
2021/05/16 01:27:24;;;;;;;4.60;1.38;;;9.30;99.90;;;;;;5056771;28;20017;-82
2021/05/16 01:29:49;;;;;;;5.22;1.10;;;9.30;99.90;;;;;;5037122;28;20032;-82
2021/05/16 01:32:20;;;;;;;2.10;0.93;;;9.50;99.90;;;;;;5038212;28;20020;-82
2021/05/16 01:34:46;;;;;;;4.45;1.55;;;9.60;99.90;;;;;;5056089;28;20017;-82
2021/05/16 01:37:13;;;;;;;6.05;1.45;;;9.70;99.90;;;;;;5054760;28;20108;-83
2021/05/16 01:39:40;;;;;;;4.57;1.40;;;9.50;99.90;;;;;;5037770;28;20079;-82
2021/05/16 01:42:06;;;;;;;4.38;1.45;;;9.40;99.90;;;;;;5038099;28;20045;-82
2021/05/16 01:44:33;;;;;;;5.70;1.42;;;9.60;99.90;;;;;;5037126;28;20033;-82
2021/05/16 01:47:01;;;;;;;6.15;1.50;;;9.40;99.90;;;;;;5036740;28;20506;-82
2021/05/16 01:49:29;;;;;;;3.58;1.35;;;9.50;99.90;;;;;;5036574;28;20400;-82
2021/05/16 01:51:54;;;;;;;4.30;1.30;;;9.60;99.90;;;;;;5053492;28;20468;-82
2021/05/16 01:54:20;;;;;;;3.17;1.30;;;9.60;99.90;;;;;;5054917;28;20142;-82
2021/05/16 01:56:47;;;;;;;6.40;1.70;;;9.40;99.90;;;;;;5037109;28;20369;-82
2021/05/16 01:59:14;;;;;;;4.78;1.55;;;9.20;99.90;;;;;;5054215;28;20017;-82
2021/05/16 02:01:41;;;;;;;6.88;2.00;;;9.10;99.90;;;;;;5054068;28;20040;-83
2021/05/16 02:04:08;;;;;;;4.65;1.55;;;9.20;99.90;;;;;;5035958;28;20499;-82
2021/05/16 02:06:34;;;;;;;9.35;1.70;;;9.10;99.90;;;;;;5053732;28;20055;-82
2021/05/16 02:09:00;;;;;;;3.47;1.67;;;9.00;99.90;;;;;;5035833;28;20021;-82
2021/05/16 02:11:25;;;;;;;4.68;1.60;;;9.00;99.90;;;;;;5053718;28;20387;-82
2021/05/16 02:13:51;;;;;;;3.38;1.40;;;9.20;99.90;;;;;;5035695;28;20017;-82
2021/05/16 02:16:18;;;;;;;5.53;1.75;;;9.30;99.90;;;;;;5053788;28;20032;-82
2021/05/16 02:18:45;;;;;;;5.60;1.63;;;9.30;99.90;;;;;;5035878;28;20423;-83
2021/05/16 02:21:11;;;;;;;5.47;1.60;;;9.40;99.90;;;;;;5035667;28;20024;-83
2021/05/16 02:23:38;;;;;;;6.72;1.60;;;9.30;99.90;;;;;;5035647;28;20024;-82
2021/05/16 02:26:04;;;;;;;3.40;1.38;;;9.40;99.90;;;;;;5035848;28;20025;-83
2021/05/16 02:28:30;;;;;;;4.75;1.40;;;9.40;99.90;;;;;;5036610;28;20086;-82
2021/05/16 02:30:56;;;;;;;4.50;1.52;;;9.30;99.90;;;;;;5054350;28;20025;-82
2021/05/16 02:33:21;;;;;;;5.60;1.88;;;9.50;99.90;;;;;;5035729;28;20021;-82
2021/05/16 02:35:47;;;;;;;5.60;1.42;;;9.50;99.90;;;;;;5036336;28;20033;-82
2021/05/16 02:38:13;;;;;;;4.85;1.52;;;9.30;99.90;;;;;;5053858;28;20049;-82
2021/05/16 02:40:38;;;;;;;3.97;1.80;;;9.50;99.90;;;;;;5053851;28;20498;-81
2021/05/16 02:43:04;;;;;;;4.90;1.83;;;9.40;99.90;;;;;;5054503;28;20538;-82
2021/05/16 02:45:30;;;;;;;3.28;1.67;;;9.40;99.90;;;;;;5054200;28;20028;-82
2021/05/16 02:47:56;;;;;;;6.22;1.70;;;9.40;99.90;;;;;;5054081;28;20480;-81
2021/05/16 02:50:21;;;;;;;5.82;1.58;;;9.50;99.90;;;;;;5054676;28;20073;-82
2021/05/16 02:52:48;;;;;;;4.20;1.30;;;9.40;99.90;;;;;;5037219;28;20049;-82
2021/05/16 02:55:14;;;;;;;6.65;1.75;;;9.50;99.90;;;;;;5037335;28;20021;-82
2021/05/16 02:57:39;;;;;;;4.07;1.88;;;9.40;99.90;;;;;;5036235;28;20029;-82
2021/05/16 03:00:06;;;;;;;4.15;1.88;;;9.40;99.90;;;;;;5054629;28;20021;-82
2021/05/16 03:02:32;;;;;;;6.15;2.08;;;9.40;99.90;;;;;;5056374;28;20096;-82
2021/05/16 03:04:57;;;;;;;4.97;2.20;;;9.30;99.90;;;;;;5058250;28;20095;-82
2021/05/16 03:07:23;;;;;;;4.72;1.88;;;9.30;99.90;;;;;;5040604;28;20495;-82
2021/05/16 03:09:49;;;;;;;3.53;1.55;;;9.40;99.90;;;;;;5040890;28;20028;-82
2021/05/16 03:12:15;;;;;;;4.95;2.00;;;9.30;99.90;;;;;;5040695;28;20028;-82
2021/05/16 03:14:40;;;;;;;4.53;1.60;;;9.40;99.90;;;;;;5058579;28;20055;-82
2021/05/16 03:17:06;;;;;;;2.75;1.55;;;9.30;99.90;;;;;;5039950;28;20029;-82
2021/05/16 03:19:32;;;;;;;3.22;1.95;;;9.30;99.90;;;;;;5057830;28;20056;-82
2021/05/16 03:22:01;;;;;;;16.05;1.83;;;9.50;99.90;;;;;;5040159;28;20029;-82
2021/05/16 03:24:27;;;;;;;2.40;1.58;;;9.60;99.90;;;;;;5057784;28;20017;-82
2021/05/16 03:26:53;;;;;;;5.63;1.70;;;9.40;99.90;;;;;;5039638;28;20031;-82
2021/05/16 03:29:18;;;;;;;3.17;1.70;;;9.30;99.90;;;;;;5041248;28;20021;-82
2021/05/16 03:31:44;;;;;;;3.80;1.75;;;9.30;99.90;;;;;;5058858;28;20052;-82
2021/05/16 03:34:10;;;;;;;3.72;1.63;;;9.40;99.90;;;;;;5039984;28;20112;-82
2021/05/16 03:36:36;;;;;;;3.25;1.40;;;9.50;99.90;;;;;;5040661;28;20028;-82
2021/05/16 03:39:03;;;;;;;3.53;1.50;;;9.50;99.90;;;;;;5041232;28;20057;-82
2021/05/16 03:41:29;;;;;;;2.53;1.42;;;9.50;99.90;;;;;;5058286;28;20029;-82
2021/05/16 03:43:55;;;;;;;4.13;1.40;;;9.70;99.90;;;;;;5039931;28;20147;-82
2021/05/16 03:46:20;;;;;;;5.18;1.85;;;9.70;99.90;;;;;;5041068;28;20116;-82
2021/05/16 03:48:46;;;;;;;5.88;1.60;;;9.70;99.90;;;;;;5041490;28;20021;-82
2021/05/16 03:51:12;;;;;;;5.57;1.60;;;9.60;99.90;;;;;;5040642;28;20025;-82
2021/05/16 03:53:38;;;;;;;5.43;1.40;;;9.60;99.90;;;;;;5040926;28;20031;-81
2021/05/16 03:56:07;;;;;;;3.45;1.48;;;9.60;99.90;;;;;;5039088;28;20494;-82
2021/05/16 03:58:33;;;;;;;2.75;1.40;;;9.50;99.90;;;;;;5038520;28;20096;-82
2021/05/16 04:00:59;;;;;;;5.70;1.52;;;9.60;99.90;;;;;;5056280;28;20100;-82
2021/05/16 04:03:24;;;;;;;6.40;1.50;;;9.60;99.90;;;;;;5055899;28;20027;-82
2021/05/16 04:05:50;;;;;;;4.18;1.52;;;9.60;99.90;;;;;;5055867;28;20043;-82
2021/05/16 04:08:16;;;;;;;3.28;1.52;;;9.70;99.90;;;;;;5055983;28;20021;-82
2021/05/16 04:10:41;;;;;;;2.65;1.48;;;9.70;99.90;;;;;;5037970;28;20021;-82
2021/05/16 04:13:07;;;;;;;2.88;1.30;;;9.60;99.90;;;;;;5037885;28;20039;-82
2021/05/16 04:15:33;;;;;;;2.13;1.40;;;9.40;99.90;;;;;;5055036;28;20426;-82
2021/05/16 04:17:59;;;;;;;2.58;1.10;;;9.50;99.90;;;;;;5055707;28;20025;-82
2021/05/16 04:20:24;;;;;;;3.97;1.33;;;9.60;99.90;;;;;;5055665;28;20032;-82
2021/05/16 04:22:50;;;;;;;4.20;1.23;;;9.70;99.90;;;;;;5037948;28;20032;-82
2021/05/16 04:25:16;;;;;;;4.18;1.25;;;9.70;99.90;;;;;;5056089;28;20021;-82
2021/05/16 04:27:42;;;;;;;2.78;1.27;;;9.60;99.90;;;;;;5037851;28;20483;-82
2021/05/16 04:30:08;;;;;;;2.88;1.30;;;9.70;99.90;;;;;;5055967;28;20469;-83
2021/05/16 04:32:34;;;;;;;3.92;1.25;;;9.60;99.90;;;;;;5037536;28;20070;-81
2021/05/16 04:34:59;;;;;;;4.15;1.20;;;9.60;99.90;;;;;;5056720;28;20461;-82
2021/05/16 04:37:25;;;;;;;3.90;1.15;;;9.40;99.90;;;;;;5038766;28;20464;-82
2021/05/16 04:39:51;;;;;;;5.75;1.40;;;9.50;99.90;;;;;;5056172;28;20021;-82
2021/05/16 04:42:17;;;;;;;3.45;1.08;;;9.50;99.90;;;;;;5038668;28;20028;-82
2021/05/16 04:44:43;;;;;;;3.35;1.08;;;9.40;99.90;;;;;;5037828;28;20085;-82
2021/05/16 04:47:09;;;;;;;5.10;1.30;;;9.50;99.90;;;;;;5056449;28;20025;-82
2021/05/16 04:49:35;;;;;;;6.50;1.20;;;9.60;99.90;;;;;;5055955;28;20489;-82
2021/05/16 04:52:01;;;;;;;2.80;1.10;;;9.60;99.90;;;;;;5037959;28;20029;-81
2021/05/16 04:54:26;;;;;;;5.10;0.85;;;9.60;99.90;;;;;;5037908;28;20020;-82
2021/05/16 04:56:52;;;;;;;2.05;0.90;;;9.70;99.90;;;;;;5037928;28;20143;-82
2021/05/16 04:59:18;;;;;;;3.42;1.00;;;9.80;99.90;;;;;;5037540;28;20075;-82
2021/05/16 05:01:43;;;;;;;4.05;1.15;;;9.80;99.90;;;;;;5038012;28;20384;-82
2021/05/16 05:04:10;;;;;;;2.35;1.00;;;9.80;99.90;;;;;;5055718;28;20033;-82
2021/05/16 05:06:38;;;;;;;2.45;0.70;;;9.80;99.90;;;;;;5037221;28;20036;-82
2021/05/16 05:09:05;;;;;;;7.57;0.90;;;9.70;99.90;;;;;;5054941;28;20021;-82
2021/05/16 05:11:34;;;;;;;3.83;0.95;;;9.40;99.90;;;;;;5055752;28;20460;-83
2021/05/16 05:14:00;;;;;;;2.25;0.85;;;9.40;99.90;;;;;;5054847;28;20472;-82
2021/05/16 05:16:26;;;;;;;2.95;0.80;;;9.40;99.90;;;;;;5037353;28;20029;-82
2021/05/16 05:18:52;;;;;;;5.57;1.02;;;9.30;99.90;;;;;;5037093;28;20021;-83
2021/05/16 05:21:18;;;;;;;3.72;1.20;;;9.40;99.90;;;;;;5037021;28;20021;-82
2021/05/16 05:23:43;;;;;;;2.67;1.08;;;9.40;99.90;;;;;;5055211;28;20108;-82
2021/05/16 05:26:09;;;;;;;1.88;1.00;;;9.40;99.90;;;;;;5054291;28;20040;-83
2021/05/16 05:28:35;;;;;;;4.50;1.17;;;9.50;99.90;;;;;;5036691;28;20031;-82
2021/05/16 05:31:00;;;;;;;5.25;1.15;;;9.60;99.90;;;;;;5037209;28;20031;-80
2021/05/16 05:33:26;;;;;;;3.47;1.33;;;9.70;99.90;;;;;;5054630;28;20057;-82
2021/05/16 05:35:53;;;;;;;2.80;0.85;;;9.60;99.90;;;;;;5054746;28;20028;-82
2021/05/16 05:38:19;;;;;;;11.57;1.20;;;9.50;99.90;;;;;;5036586;28;20025;-82
2021/05/16 05:40:45;;;;;;;2.75;1.00;;;9.60;99.90;;;;;;5054140;28;20380;-82
2021/05/16 05:43:11;;;;;;;3.65;1.00;;;9.40;99.90;;;;;;5036422;28;20033;-82
2021/05/16 05:45:37;;;;;;;1.55;0.70;;;9.50;99.90;;;;;;5036499;28;20029;-82
2021/05/16 05:48:04;;;;;;;3.85;0.98;;;9.60;99.90;;;;;;5036163;28;20423;-82
2021/05/16 05:50:29;;;;;;;3.70;0.98;;;9.70;99.90;;;;;;5053895;28;20412;-82
2021/05/16 05:52:55;;;;;;;2.70;1.00;;;9.90;99.90;;;;;;5036579;28;20017;-82
2021/05/16 05:55:22;;;;;;;3.08;0.93;;;9.80;99.90;;;;;;5036144;28;20021;-83
2021/05/16 05:57:47;;;;;;;3.08;1.17;;;9.80;99.90;;;;;;5036978;28;20029;-82
2021/05/16 06:00:14;;;;;;;4.07;0.88;;;9.80;99.90;;;;;;5036626;28;20391;-82
2021/05/16 06:02:39;;;;;;;3.38;0.85;;;9.90;99.90;;;;;;5054301;28;20035;-81
2021/05/16 06:05:06;;;;;;;3.80;0.90;;;10.00;99.90;;;;;;5054233;28;20033;-81
2021/05/16 06:07:31;;;;;;;3.63;0.95;;;10.20;99.90;;;;;;5035997;28;20032;-83
2021/05/16 06:09:57;;;;;;;3.78;0.90;;;10.20;99.90;;;;;;5035717;28;20025;-83
2021/05/16 06:12:25;;;;;;;3.50;0.82;;;10.40;99.90;;;;;;5035896;28;20451;-82
2021/05/16 06:14:53;;;;;;;4.75;1.00;;;10.50;99.90;;;;;;5035705;28;20052;-81
2021/05/16 06:17:19;;;;;;;5.95;1.10;;;10.50;99.90;;;;;;5053457;28;20449;-82
2021/05/16 06:19:44;;;;;;;3.63;0.82;;;10.50;99.90;;;;;;5035643;28;20064;-80
2021/05/16 06:22:13;;;;;;;6.30;0.90;;;10.60;99.90;;;;;;5053710;28;20021;-82
2021/05/16 06:24:40;;;;;;;3.92;0.80;;;10.60;99.90;;;;;;5053543;28;20103;-82
2021/05/16 06:27:06;;;;;;;2.88;0.80;;;10.70;99.90;;;;;;5035333;28;20028;-82
2021/05/16 06:29:31;;;;;;;6.43;1.00;;;10.60;99.90;;;;;;5053405;28;20469;-82
2021/05/16 06:31:57;;;;;;;3.92;0.93;;;10.80;99.90;;;;;;5035427;28;20384;-83
2021/05/16 06:34:23;;;;;;;2.53;1.00;;;11.00;99.90;;;;;;5035389;28;20033;-82
2021/05/16 06:36:48;;;;;;;3.22;0.85;;;11.10;99.90;;;;;;5034999;28;20377;-82
2021/05/16 06:39:20;;;;;;;3.88;1.00;;;11.10;99.90;;;;;;5053897;28;20110;-82
2021/05/16 06:41:46;;;;;;;2.22;0.70;;;11.00;99.90;;;;;;5053146;28;20074;-81
2021/05/16 06:44:12;;;;;;;5.68;0.90;;;11.00;99.90;;;;;;5053187;28;20472;-81
2021/05/16 06:46:38;;;;;;;2.95;0.77;;;11.10;99.90;;;;;;5035102;28;20116;-82
2021/05/16 06:49:04;;;;;;;5.95;1.13;;;11.10;99.90;;;;;;5027092;28;20516;-82
2021/05/16 06:51:29;;;;;;;3.20;0.90;;;11.20;99.90;;;;;;5013744;28;20096;-82
2021/05/16 06:53:55;;;;;;;3.67;1.08;;;11.10;99.90;;;;;;5012163;28;20018;-81
2021/05/16 06:56:21;;;;;;;5.05;1.05;;;11.30;99.90;;;;;;5013523;28;20505;-82
2021/05/16 06:58:46;;;;;;;4.88;0.82;;;11.20;99.90;;;;;;5012199;28;20026;-81
2021/05/16 07:01:12;;;;;;;4.63;0.70;;;11.20;99.90;;;;;;5012079;28;20022;-82
2021/05/16 07:03:39;;;;;;;4.28;1.00;;;11.30;99.90;;;;;;5012083;28;20109;-82
2021/05/16 07:06:05;;;;;;;2.95;0.80;;;11.40;99.90;;;;;;5012072;28;20390;-82
2021/05/16 07:08:31;;;;;;;6.47;1.05;;;11.40;99.90;;;;;;5011997;28;20022;-82
2021/05/16 07:10:57;;;;;;;4.07;1.10;;;11.50;99.90;;;;;;5012042;28;20025;-83
2021/05/16 07:13:23;;;;;;;4.25;0.80;;;11.50;99.90;;;;;;5011988;28;20025;-82
2021/05/16 07:15:49;;;;;;;4.50;1.08;;;11.60;99.90;;;;;;5013491;28;20030;-84
2021/05/16 07:18:15;;;;;;;4.43;0.70;;;11.60;99.90;;;;;;4995904;28;20194;-83
2021/05/16 07:20:40;;;;;;;2.47;0.80;;;11.60;99.90;;;;;;5013134;28;20030;-83
2021/05/16 07:23:06;;;;;;;6.20;0.90;;;11.60;99.90;;;;;;5011952;28;20026;-83
2021/05/16 07:25:32;;;;;;;3.72;0.80;;;11.40;99.90;;;;;;5013192;28;20481;-82
2021/05/16 07:27:58;;;;;;;4.18;1.02;;;11.70;99.90;;;;;;5011943;28;20084;-83
2021/05/16 07:30:24;;;;;;;4.13;0.95;;;12.00;99.90;;;;;;5013313;28;20022;-83
2021/05/16 07:32:50;;;;;;;2.70;0.70;;;12.30;99.90;;;;;;5011938;28;20106;-83
2021/05/16 07:35:17;;;;;;;3.72;1.00;;;12.50;99.90;;;;;;5013158;28;20540;-82
2021/05/16 07:37:43;;;;;;;3.20;0.93;;;12.40;99.90;;;;;;5011775;28;20485;-83
2021/05/16 07:40:10;;;;;;;3.88;0.93;;;12.20;99.90;;;;;;5011660;28;20030;-83
2021/05/16 07:42:36;;;;;;;7.65;1.02;;;12.20;99.90;;;;;;5011665;28;20117;-83
2021/05/16 07:45:02;;;;;;;5.38;1.38;;;11.90;99.90;;;;;;5012870;28;20054;-84
2021/05/16 07:47:28;;;;;;;8.45;1.45;;;11.80;99.90;;;;;;5012757;28;20026;-82
2021/05/16 07:49:53;;;;;;;2.70;1.10;;;11.30;99.90;;;;;;5037370;28;20114;-82
2021/05/16 07:52:19;;;;;;;6.80;1.38;;;11.00;99.90;;;;;;5056055;28;20100;-82
2021/05/16 07:54:45;;;;;;;6.20;1.13;;;10.70;99.90;;;;;;5056042;28;20460;-82
2021/05/16 07:57:10;;;;;;;4.15;0.98;;;10.60;99.90;;;;;;5056264;28;20078;-82
2021/05/16 07:59:37;;;;;;;6.10;1.20;;;10.70;99.90;;;;;;5038068;28;20021;-82
2021/05/16 08:02:04;;;;;;;4.65;1.20;;;10.80;99.90;;;;;;5038020;28;20492;-83
2021/05/16 08:04:30;;;;;;;4.95;1.17;;;10.90;99.90;;;;;;5038061;28;20029;-83
2021/05/16 08:06:56;;;;;;;4.43;1.20;;;11.10;99.90;;;;;;5037841;28;20442;-84
2021/05/16 08:09:25;;;;;;;4.30;1.10;;;11.30;99.90;;;;;;5055828;28;20025;-84
2021/05/16 08:11:51;;;;;;;5.05;1.10;;;11.60;99.90;;;;;;5055804;28;20027;-84
2021/05/16 08:14:17;;;;;;;5.43;1.10;;;11.70;99.90;;;;;;5037850;28;20107;-84
2021/05/16 08:16:43;;;;;;;7.47;1.30;;;11.70;99.90;;;;;;5055913;28;20033;-84
2021/05/16 08:19:09;;;;;;;7.75;1.42;;;12.00;99.90;;;;;;5037746;28;20119;-85
2021/05/16 08:21:36;;;;;;;7.13;1.50;;;12.10;99.90;;;;;;5037746;28;20387;-85
2021/05/16 08:24:06;;;;;;;3.70;1.30;;;12.40;99.90;;;;;;5055539;28;20025;-86
2021/05/16 08:26:32;;;;;;;7.35;1.30;;;12.80;99.90;;;;;;5037587;28;20033;-85
2021/05/16 08:28:58;;;;;;;4.93;1.20;;;13.00;99.90;;;;;;5055500;28;20017;-85
2021/05/16 08:31:24;;;;;;;5.13;1.13;;;13.00;99.90;;;;;;5037470;28;20052;-84
2021/05/16 08:33:50;;;;;;;8.40;2.03;;;13.00;99.90;;;;;;5055689;28;20020;-84
2021/05/16 08:36:16;;;;;;;7.90;1.70;;;12.90;99.90;;;;;;5055529;28;20079;-85
2021/05/16 08:38:42;;;;;;;5.60;1.40;;;12.80;99.90;;;;;;5055626;28;20029;-84
2021/05/16 08:41:10;;;;;;;9.18;1.63;;;13.10;99.90;;;;;;5055587;28;20507;-85
2021/05/16 08:43:36;;;;;;;8.75;1.40;;;13.30;99.90;;;;;;5037430;28;20392;-84
2021/05/16 08:46:02;;;;;;;6.63;1.58;;;13.50;99.90;;;;;;5037201;28;20021;-84
2021/05/16 08:48:29;;;;;;;6.82;1.10;;;13.60;99.90;;;;;;5055164;28;20025;-84
2021/05/16 08:50:56;;;;;;;6.97;1.38;;;13.30;99.90;;;;;;5037098;28;20071;-84
2021/05/16 08:53:22;;;;;;;5.53;1.13;;;13.40;99.90;;;;;;5055131;28;20087;-84
2021/05/16 08:55:48;;;;;;;8.93;1.70;;;13.50;99.90;;;;;;5055278;28;20021;-84
2021/05/16 08:58:14;;;;;;;9.02;1.60;;;13.70;99.90;;;;;;5055306;28;20033;-84
2021/05/16 09:00:46;;;;;;;5.35;1.55;;;14.00;99.90;;;;;;5036800;28;20101;-85
2021/05/16 09:03:17;;;;;;;7.75;1.20;;;14.40;99.90;;;;;;5054824;28;20028;-84
2021/05/16 09:05:51;;;;;;;6.93;1.65;;;14.30;99.90;;;;;;5055026;28;20098;-84
2021/05/16 09:08:22;;;;;;;7.70;1.45;;;13.80;99.90;;;;;;5036870;28;20100;-84
2021/05/16 09:10:57;;;;;;;6.88;1.30;;;14.00;99.90;;;;;;5054729;28;20104;-83
2021/05/16 09:13:26;;;;;;;9.30;1.75;;;14.10;99.90;;;;;;5054646;28;20025;-84
2021/05/16 09:16:05;;;;;;;7.68;1.40;;;14.30;99.90;;;;;;5054566;28;20021;-82
2021/05/16 09:18:51;;;;;;;9.10;1.50;;;14.40;99.90;;;;;;5054882;28;20021;-83
2021/05/16 09:21:29;;;;;;;8.80;1.70;;;14.40;99.90;;;;;;5036732;28;20033;-84
2021/05/16 09:24:07;;;;;;;10.25;2.15;;;14.70;99.90;;;;;;5036569;28;20116;-85
2021/05/16 09:26:38;;;;;;;7.13;1.70;;;15.10;99.90;;;;;;5054320;28;20033;-83
2021/05/16 09:29:26;;;;;;;8.43;1.63;;;15.30;99.90;;;;;;5054352;28;20056;-83
2021/05/16 09:31:53;;;;;;;6.22;1.33;;;15.20;99.90;;;;;;5036315;28;20025;-84
2021/05/16 09:34:19;;;;;;;7.63;1.50;;;15.40;99.90;;;;;;5036623;28;20033;-84
2021/05/16 09:36:46;;;;;;;8.55;1.17;;;15.50;99.90;;;;;;5036290;28;20032;-83
2021/05/16 09:39:19;;;;;;;5.97;1.50;;;15.40;99.90;;;;;;5054141;28;20028;-84
2021/05/16 09:41:59;;;;;;;9.43;1.48;;;15.70;99.90;;;;;;5036277;28;20496;-83
2021/05/16 09:44:41;;;;;;;6.47;1.42;;;15.90;99.90;;;;;;5036260;28;20024;-84
2021/05/16 09:47:21;;;;;;;6.22;1.48;;;16.10;99.90;;;;;;5036015;28;20029;-83
2021/05/16 09:49:52;;;;;;;6.80;1.48;;;15.80;99.90;;;;;;5053762;28;20132;-84
2021/05/16 09:52:23;;;;;;;6.38;1.40;;;16.50;99.90;;;;;;5036035;28;20045;-83
2021/05/16 09:54:57;;;;;;;6.95;1.30;;;16.90;99.90;;;;;;5036035;28;20017;-82
2021/05/16 09:57:28;;;;;;;8.87;1.53;;;16.40;99.90;;;;;;5021255;28;20123;-83
2021/05/16 10:00:01;;;;;;;8.70;1.52;;;16.20;99.90;;;;;;5053804;28;20033;-83
2021/05/16 10:02:28;;;;;;;6.78;1.40;;;15.90;99.90;;;;;;5019648;28;20090;-84
2021/05/16 10:04:55;;;;;;;7.40;1.30;;;15.90;99.90;;;;;;5035823;28;20032;-83
2021/05/16 10:07:23;;;;;;;6.63;1.63;;;16.00;99.90;;;;;;5053348;28;20035;-83
2021/05/16 10:09:50;;;;;;;4.63;1.27;;;15.70;99.90;;;;;;5053796;28;20492;-83
2021/05/16 10:12:21;;;;;;;9.55;1.50;;;15.40;99.90;;;;;;5035072;28;20025;-84
2021/05/16 10:15:08;;;;;;;4.15;1.02;;;15.30;99.90;;;;;;5053595;28;20017;-84
2021/05/16 10:17:39;;;;;;;6.32;1.10;;;16.30;99.90;;;;;;5042648;28;20033;-85
2021/05/16 10:20:13;;;;;;;5.70;1.10;;;16.20;99.90;;;;;;5035576;28;20415;-85
2021/05/16 10:22:40;;;;;;;6.40;1.27;;;15.90;99.90;;;;;;5035549;28;20025;-83
2021/05/16 10:25:06;;;;;;;6.80;1.50;;;15.90;99.90;;;;;;5035747;28;20091;-84
2021/05/16 10:27:46;;;;;;;6.03;1.35;;;15.40;99.90;;;;;;5035266;28;20025;-83
2021/05/16 10:30:16;;;;;;;8.00;1.60;;;16.30;99.90;;;;;;5053304;28;20017;-83
2021/05/16 10:32:50;;;;;;;8.25;1.45;;;16.40;99.90;;;;;;5035321;28;20029;-83
2021/05/16 10:35:16;;;;;;;8.95;2.22;;;16.20;99.90;;;;;;5053219;28;20104;-83
2021/05/16 10:37:51;;;;;;;5.60;1.00;;;16.00;99.90;;;;;;5035310;28;20033;-83
2021/05/16 10:40:20;;;;;;;5.63;1.50;;;15.80;99.90;;;;;;5035214;28;20029;-83
2021/05/16 10:42:47;;;;;;;8.82;2.28;;;16.20;99.90;;;;;;5053432;28;20052;-83
2021/05/16 10:45:17;;;;;;;7.07;1.30;;;;;;;;;;5035245;28;20051;-82
2021/05/16 10:47:46;;;;;;;7.88;1.70;;;;;;;;;;5053167;28;20024;-83
2021/05/16 10:50:14;;;;;;;6.97;2.08;;;;;;;;;;5034997;28;20080;-81
2021/05/16 10:52:44;;;;;;;4.88;1.17;;;;;;;;;;5035122;28;20048;-83
2021/05/16 10:55:26;;;;;;;6.60;1.02;;;;;;;;;;5035159;28;20021;-83
2021/05/16 10:57:51;;;;;;;4.50;0.70;;;17.70;99.90;;;;;;5053321;28;20025;-82
2021/05/16 11:00:20;;;;;;;6.22;1.08;;;18.00;99.90;;;;;;5053161;28;20027;-83
2021/05/16 11:03:08;;;;;;;2.88;0.90;;;18.50;99.90;;;;;;5052870;28;20020;-83
2021/05/16 11:08:31;;;;;;;7.40;1.38;;;19.20;99.90;;;;;;5052883;28;20484;-82
2021/05/16 11:10:58;;;;;;;7.10;1.23;;;19.60;99.90;;;;;;5023240;28;20037;-83
2021/05/16 11:13:27;;;;;;;4.05;1.02;;;19.80;98.90;;;;;;5035099;28;20383;-83
2021/05/16 11:16:05;;;;;;;4.53;0.90;;;19.90;97.10;;;;;;5035004;28;20021;-83
2021/05/16 11:18:31;;;;;;;4.72;1.13;;;19.80;96.70;;;;;;5035003;28;20025;-81
2021/05/16 11:21:07;;;;;;;6.05;1.98;;;19.60;96.30;;;;;;5053001;28;20431;-82
2021/05/16 11:23:39;;;;;;;4.35;1.33;;;19.40;95.70;;;;;;5036187;28;20083;-83
2021/05/16 11:26:07;;;;;;;6.50;1.23;;;19.30;97.80;;;;;;5056909;28;20052;-82
2021/05/16 11:28:56;;;;;;;5.57;1.27;;;19.50;96.60;;;;;;5038664;28;20547;-82
2021/05/16 11:31:24;;;;;;;5.80;1.33;;;18.60;95.00;;;;;;5056879;28;20028;-83
2021/05/16 11:33:52;;;;;;;5.50;1.08;;;19.10;95.10;;;;;;5038602;28;20028;-82
2021/05/16 11:36:30;;;;;;;3.78;1.00;;;19.50;94.90;;;;;;5038596;28;20028;-83
2021/05/16 11:38:58;;;;;;;5.85;1.10;;;19.80;94.50;;;;;;5056479;28;20056;-82
2021/05/16 11:41:36;;;;;;;4.68;1.13;;;19.60;92.80;;;;;;5038525;28;20060;-81
2021/05/16 11:44:07;;;;;;;5.78;1.05;;;19.30;92.80;;;;;;5056355;28;20021;-83
2021/05/16 11:46:35;;;;;;;4.72;0.80;;;19.00;93.10;;;;;;5056323;28;20040;-83
2021/05/16 11:49:02;;;;;;;5.80;1.00;;;18.20;93.60;;;;;;5038001;28;20106;-82
2021/05/16 11:51:29;;;;;;;5.13;0.93;;;17.60;94.50;;;;;;5038459;28;20029;-82
2021/05/16 11:54:04;;;;;;;4.63;0.80;;;17.30;94.80;;;;;;5056553;28;20025;-82
2021/05/16 11:56:30;;;;;;;;;;;17.60;96.30;;;;;;5056593;28;20035;-83
2021/05/16 11:58:58;;;;;;;4.45;1.30;;;18.70;95.30;;;;;;5038163;28;19905;-82
2021/05/16 12:01:32;;;;;;;5.68;1.35;;;19.20;93.30;;;;;;5056230;28;20033;-82
2021/05/16 12:04:24;;;;;;;6.55;1.35;;;18.70;93.40;;;;;;5056043;28;20021;-83
2021/05/16 12:06:52;;;;;;;4.93;1.02;;;18.10;94.90;;;;;;5052878;28;20039;-82
2021/05/16 12:09:24;;;;;;;6.13;1.42;;;17.70;95.90;;;;;;5037972;28;20021;-83
2021/05/16 12:11:52;;;;;;;4.47;1.23;;;17.40;96.40;;;;;;5055805;28;20021;-82
2021/05/16 12:14:19;;;;;;;5.80;1.20;;;17.40;96.50;;;;;;5037842;28;20103;-82
2021/05/16 12:16:55;;;;;;;4.80;1.05;;;16.90;95.00;;;;;;5055699;28;20029;-83
2021/05/16 12:19:30;;;;;;;6.78;1.38;;;16.70;96.40;;;;;;5037790;28;20503;-83
2021/05/16 12:22:04;;;;;;;7.93;1.33;;;16.70;97.70;;;;;;5037853;28;20025;-82
2021/05/16 12:24:33;;;;;;;4.72;1.10;;;16.50;97.90;;;;;;5038059;28;20044;-83
2021/05/16 12:26:59;;;;;;;4.00;0.95;;;16.30;97.60;;;;;;5055407;28;20044;-83
2021/05/16 12:29:26;;;;;;;5.32;1.60;;;16.10;98.20;;;;;;5037543;28;20112;-83
2021/05/16 12:31:52;;;;;;;4.65;1.25;;;16.10;99.60;;;;;;5055430;28;20027;-83
2021/05/16 12:34:23;;;;;;;7.75;1.23;;;16.10;99.00;;;;;;5055210;28;20112;-82
2021/05/16 12:37:00;;;;;;;9.40;1.60;;;16.00;99.10;;;;;;5055359;28;20020;-83
2021/05/16 12:39:47;;;;;;;7.43;1.33;;;16.30;99.90;;;;;;5037517;28;20402;-82
2021/05/16 12:42:23;;;;;;;5.10;1.27;;;16.70;99.10;;;;;;5037430;28;20392;-82
2021/05/16 12:44:49;;;;;;;4.82;0.90;;;17.10;97.80;;;;;;5037356;28;20021;-82
2021/05/16 12:47:26;;;;;;;5.32;1.17;;;17.10;97.90;;;;;;5037165;28;20021;-82
2021/05/16 12:50:07;;;;;;;4.97;1.08;;;16.80;98.50;;;;;;5037070;28;20501;-82
2021/05/16 12:52:33;;;;;;;5.72;1.30;;;16.60;99.30;;;;;;5054901;28;20045;-82
2021/05/16 12:55:00;;;;;;;5.57;1.55;;;16.40;99.30;;;;;;5055066;28;20088;-82
2021/05/16 12:57:40;;;;;;;5.90;1.10;;;16.10;98.60;;;;;;5037102;28;20029;-82
2021/05/16 13:00:07;;;;;;;2.80;1.00;;;16.10;98.80;;;;;;5037154;28;20031;-81